Time;durP1;ratioP1;P1;durP2;ratioP2;P2;SDS_P1;SDS_P2;PMS_P1;PMS_P2;Temp;Humidity;BMP_temperature;BMP_pressure;BME280_temperature;BME280_humidity;BME280_pressure;Samples;Min_cycle;Max_cycle;Signal;HPM_P1;HPM_P2
2022/01/30 14:03:49;;;;;;;6.70;2.37;;;;;;;18.00;30.50;98523.13;5068842;28;20542;-71
2022/01/30 14:06:59;;;;;;;10.33;2.60;;;;;;;17.70;29.94;98525.41;4996891;28;61409;-71
2022/01/30 14:11:10;;;;;;;6.60;2.00;;;;;;;17.11;31.13;98529.00;4998801;27;20560;-70
2022/01/30 14:14:18;;;;;;;6.20;2.10;;;;;;;16.66;31.30;98538.91;4898415;28;20471;-70
2022/01/30 14:17:24;;;;;;;12.40;2.50;;;;;;;16.17;33.12;98542.09;4996503;28;20427;-70
2022/01/30 14:20:31;;;;;;;12.47;2.90;;;;;;;15.82;34.10;98542.84;4998393;28;20564;-70
2022/01/30 14:23:37;;;;;;;16.23;2.57;;;;;;;15.62;34.87;98538.72;5008137;28;20501;-70
2022/01/30 14:26:43;;;;;;;18.50;3.10;;;;;;;14.97;35.25;98534.44;5046299;28;20493;-70
2022/01/30 14:29:54;;;;;;;10.03;2.57;;;;;;;14.79;35.24;98529.13;5048785;28;20460;-72
2022/01/30 14:33:00;;;;;;;9.67;2.70;;;;;;;14.11;34.03;98538.94;5059726;28;20919;-70
2022/01/30 14:36:07;;;;;;;9.10;2.50;;;;;;;13.79;34.89;98535.66;5047601;28;20854;-69
2022/01/30 14:39:13;;;;;;;12.30;2.77;;;;;;;13.57;35.09;98534.13;5047461;28;20464;-71
2022/01/30 14:42:19;;;;;;;12.60;3.10;;;;;;;13.61;37.72;98532.88;5046757;28;20505;-71
2022/01/30 14:45:25;;;;;;;9.60;2.97;;;;;;;13.81;37.15;98538.94;5047812;28;20429;-71
2022/01/30 14:48:31;;;;;;;11.40;2.90;;;;;;;14.05;37.99;98523.66;5047314;28;20479;-70
2022/01/30 14:51:38;;;;;;;12.07;2.80;;;;;;;14.28;38.76;98529.44;5048334;28;20461;-71
2022/01/30 14:54:44;;;;;;;6.47;2.67;;;;;;;14.44;37.87;98523.56;5047522;28;20496;-71
2022/01/30 14:57:53;;;;;;;8.70;2.60;;;;;;;14.58;37.94;98524.88;5047682;28;20424;-72
2022/01/30 15:00:59;;;;;;;46.60;4.33;;;;;;;14.24;35.44;98506.97;5047788;28;20513;-72
2022/01/30 15:04:05;;;;;;;7.53;2.40;;;;;;;14.19;34.48;98520.56;5066000;28;20475;-72
2022/01/30 15:06:51;;;;;;;14.07;2.97;;;;;;;13.42;35.60;98517.06;5052961;28;20999;-74
2022/01/30 15:09:36;;;;;;;6.37;2.23;;;;;;;13.51;36.11;98517.09;5033183;28;20531;-75
2022/01/30 15:12:22;;;;;;;10.43;2.40;;;;;;;13.58;35.85;98521.78;5048000;28;20434;-71
2022/01/30 15:15:07;;;;;;;12.37;2.97;;;;;;;13.46;34.65;98515.84;5048199;28;20484;-71
2022/01/30 15:17:52;;;;;;;7.97;2.77;;;;;;;13.15;34.92;98510.66;5056469;28;76209;-71
2022/01/30 15:20:36;;;;;;;8.70;2.57;;;;;;;12.90;35.31;98510.19;5044128;28;20461;-71
2022/01/30 15:23:20;;;;;;;5.90;2.30;;;;;;;12.52;35.52;98504.69;5054372;28;20836;-71
2022/01/30 15:26:04;;;;;;;5.87;2.17;;;;;;;12.37;35.77;98506.00;5059238;28;20514;-71
2022/01/30 15:28:51;;;;;;;8.73;2.37;;;;;;;12.18;36.72;98506.75;5061626;28;20426;-70
2022/01/30 15:31:35;;;;;;;8.07;2.60;;;;;;;12.16;36.09;98511.31;5057216;28;20782;-69
2022/01/30 15:34:19;;;;;;;11.93;3.13;;;;;;;11.90;36.58;98514.31;5038893;28;20458;-72
2022/01/30 15:37:03;;;;;;;12.13;2.83;;;;;;;11.66;37.14;98503.09;5053917;28;20516;-71
2022/01/30 15:39:47;;;;;;;7.87;2.50;;;;;;;11.56;37.16;98486.44;5052548;28;20503;-72
2022/01/30 15:42:32;;;;;;;9.80;3.53;;;;;;;11.37;37.16;98484.50;5053916;28;20473;-73
2022/01/30 15:51:01;;;;;;;9.97;2.87;;;;;;;11.20;38.81;98481.47;5072298;28;20521;-71
2022/01/30 15:53:45;;;;;;;12.77;3.30;;;;;;;11.03;38.44;98482.00;5073420;28;20845;-71
2022/01/30 15:56:30;;;;;;;12.27;2.80;;;;;;;11.08;39.01;98490.34;5073544;28;20437;-71
2022/01/30 15:59:17;;;;;;;7.63;2.70;;;;;;;11.03;39.62;98485.44;5058170;28;20432;-71
2022/01/30 16:02:00;;;;;;;16.83;3.10;;;;;;;11.06;39.38;98484.38;5046779;28;20523;-71
2022/01/30 16:04:51;;;;;;;13.53;3.57;;;;;;;11.08;39.44;98482.47;5056100;28;20464;-70
2022/01/30 16:07:36;;;;;;;16.33;2.80;;;;;;;11.03;39.39;98480.19;5070116;28;20459;-72
2022/01/30 16:10:22;;;;;;;12.50;3.07;;;;;;;11.03;39.84;98484.63;5073285;28;20486;-71
2022/01/30 16:16:08;;;;;;;11.57;3.40;;;;;;;10.85;40.17;98476.44;5073127;28;20463;-71
2022/01/30 16:18:52;;;;;;;11.00;3.80;;;;;;;10.83;40.14;98492.31;5072776;28;20523;-72
2022/01/30 16:21:36;;;;;;;11.07;3.30;;;;;;;10.79;40.98;98493.50;5073053;28;20872;-72
2022/01/30 16:24:19;;;;;;;14.73;3.00;;;;;;;10.72;41.27;98495.78;5072967;28;20443;-72
2022/01/30 16:27:04;;;;;;;16.10;3.87;;;;;;;10.70;41.11;98500.31;5072921;28;20514;-72
2022/01/30 16:29:48;;;;;;;16.40;3.33;;;;;;;10.65;41.45;98497.19;5052832;28;20821;-72
2022/01/30 16:32:31;;;;;;;14.00;3.33;;;;;;;10.60;41.25;98496.75;5052962;28;20539;-72
2022/01/30 16:35:15;;;;;;;9.67;3.70;;;;;;;10.57;41.39;98502.22;5057302;28;20448;-71
2022/01/30 16:38:01;;;;;;;12.90;4.77;;;;;;;10.49;41.40;98502.81;5059663;28;20432;-70
2022/01/30 16:40:46;;;;;;;10.97;3.87;;;;;;;10.40;41.72;98499.13;5071233;28;20553;-71
2022/01/30 16:43:43;;;;;;;9.40;3.43;;;;;;;10.27;41.47;98499.22;5072604;28;20472;-70
2022/01/30 16:49:11;;;;;;;13.93;5.73;;;;;;;10.14;42.56;98498.50;5051258;28;20453;-70
2022/01/30 16:51:55;;;;;;;17.23;6.40;;;;;;;10.04;42.57;98495.75;5055492;28;20812;-71
2022/01/30 16:54:39;;;;;;;14.53;5.60;;;;;;;9.92;42.50;98484.44;5065922;28;20548;-71
2022/01/30 16:57:24;;;;;;;14.33;4.40;;;;;;;9.89;42.41;98487.28;5056739;28;21022;-72
2022/01/30 17:00:09;;;;;;;14.00;4.90;;;;;;;9.88;42.79;98493.47;5053735;28;20454;-70
2022/01/30 17:02:53;;;;;;;17.57;4.67;;;;;;;9.81;43.10;98487.88;5039098;28;20884;-71
2022/01/30 17:05:37;;;;;;;8.77;4.23;;;;;;;9.77;43.11;98490.84;5053992;28;20920;-71
2022/01/30 17:08:23;;;;;;;11.53;4.57;;;;;;;9.74;43.63;98489.28;5060900;28;20456;-71
2022/01/30 17:11:11;;;;;;;13.47;4.73;;;;;;;9.67;43.56;98486.28;5043529;28;20547;-71
2022/01/30 17:13:55;;;;;;;14.53;4.20;;;;;;;9.62;43.62;98485.78;5049333;28;20451;-71
2022/01/30 17:16:39;;;;;;;13.73;5.20;;;;;;;9.59;43.38;98488.63;5072087;28;20959;-71
2022/01/30 17:19:27;;;;;;;11.00;4.47;;;;;;;9.55;43.81;98492.44;5061448;28;20446;-70
2022/01/30 17:22:11;;;;;;;19.13;5.33;;;;;;;9.48;43.57;98486.84;5052019;28;20919;-71
2022/01/30 17:24:54;;;;;;;13.77;5.57;;;;;;;9.42;44.47;98476.00;5051856;28;20440;-71
2022/01/30 17:27:38;;;;;;;15.83;4.70;;;;;;;9.36;44.44;98456.34;5033686;28;20519;-70
2022/01/30 17:30:22;;;;;;;15.23;6.10;;;;;;;9.33;44.31;98461.78;5055372;28;21036;-70
2022/01/30 17:33:07;;;;;;;18.60;5.50;;;;;;;9.25;44.43;98469.38;5060772;28;20534;-71
2022/01/30 17:35:53;;;;;;;12.33;5.90;;;;;;;9.14;45.00;98467.56;5065861;28;20432;-71
2022/01/30 17:38:37;;;;;;;15.93;5.90;;;;;;;9.09;45.24;98462.66;5055424;28;20430;-71
2022/01/30 17:41:20;;;;;;;15.07;5.30;;;;;;;8.98;45.35;98462.59;5035371;28;20428;-71
2022/01/30 17:44:05;;;;;;;16.27;6.47;;;;;;;8.98;45.61;98460.00;5064389;28;20184;-71
2022/01/30 17:46:49;;;;;;;15.63;5.50;;;;;;;9.00;46.25;98463.34;5085160;28;20415;-71
2022/01/30 17:49:32;;;;;;;19.43;6.13;;;;;;;8.96;45.59;98451.41;5071111;28;20812;-72
2022/01/30 17:52:16;;;;;;;15.97;6.37;;;;;;;8.95;45.51;98453.19;5060509;28;20443;-72
2022/01/30 17:55:00;;;;;;;19.63;7.40;;;;;;;8.90;45.80;98456.13;5045455;28;20569;-70
2022/01/30 17:57:44;;;;;;;17.17;6.67;;;;;;;8.87;45.92;98456.38;5060248;28;20437;-70
2022/01/30 18:00:29;;;;;;;14.90;6.37;;;;;;;8.82;46.22;98452.44;5070867;28;21046;-71
2022/01/30 18:03:16;;;;;;;19.90;8.63;;;;;;;8.81;46.07;98445.53;5074947;28;20444;-71
2022/01/30 18:05:59;;;;;;;106.40;47.40;;;;;;;8.68;46.44;98441.19;5049559;28;20722;-72
2022/01/30 18:08:46;;;;;;;63.53;29.83;;;;;;;8.69;46.55;98440.25;5070079;28;20438;-71
2022/01/30 18:11:33;;;;;;;53.23;23.63;;;;;;;8.61;46.15;98447.78;5070631;28;20784;-71
2022/01/30 18:14:16;;;;;;;44.40;20.50;;;;;;;8.50;46.85;98453.78;5070807;28;20448;-72
2022/01/30 18:20:41;;;;;;;23.03;9.80;;;;;;;8.41;46.40;98451.78;5055675;28;20447;-70
2022/01/30 18:23:25;;;;;;;14.57;6.37;;;;;;;8.37;47.17;98447.72;5048283;28;20436;-70
2022/01/30 18:26:09;;;;;;;18.93;5.43;;;;;;;8.34;46.92;98442.72;5051827;28;20814;-71
2022/01/30 18:28:53;;;;;;;19.03;7.73;;;;;;;8.29;47.17;98436.03;5058653;28;20491;-71
2022/01/30 18:31:36;;;;;;;19.23;6.90;;;;;;;8.23;47.20;98440.84;5066764;28;20479;-71
2022/01/30 18:34:22;;;;;;;18.27;6.90;;;;;;;8.21;47.62;98440.97;5051005;28;20460;-71
2022/01/30 18:37:14;;;;;;;23.17;11.20;;;;;;;8.13;47.62;98433.66;5050709;28;20419;-71
2022/01/30 18:40:00;;;;;;;23.43;10.70;;;;;;;8.14;47.69;98430.09;5049111;28;20457;-70
2022/01/30 18:42:44;;;;;;;25.00;10.83;;;;;;;8.02;47.75;98420.50;5050834;28;20425;-70
2022/01/30 18:45:28;;;;;;;21.37;10.80;;;;;;;7.88;48.17;98425.84;5050441;28;20863;-72
2022/01/30 18:48:12;;;;;;;27.53;10.40;;;;;;;7.78;48.07;98423.88;5069202;28;20527;-71
2022/01/30 18:50:56;;;;;;;35.53;10.40;;;;;;;7.75;48.30;98416.25;5070132;28;20490;-72
2022/01/30 18:53:40;;;;;;;20.43;11.13;;;;;;;7.63;48.75;98417.06;5063237;28;20540;-70
2022/01/30 18:56:23;;;;;;;24.10;11.00;;;;;;;7.60;48.75;98409.44;5058538;28;20480;-71
2022/01/30 18:59:07;;;;;;;24.00;9.50;;;;;;;7.52;49.31;98405.59;5061154;28;20447;-72
2022/01/30 19:01:51;;;;;;;20.70;9.60;;;;;;;7.57;49.40;98402.66;5055163;28;20500;-72
2022/01/30 19:04:35;;;;;;;21.63;9.60;;;;;;;7.52;49.05;98400.38;5072140;28;20859;-72
2022/01/30 19:07:19;;;;;;;26.90;11.20;;;;;;;7.47;49.37;98399.84;5050626;28;20471;-71
2022/01/30 19:10:04;;;;;;;27.13;13.43;;;;;;;7.47;49.72;98396.41;5061632;28;20492;-72
2022/01/30 19:12:48;;;;;;;28.67;17.13;;;;;;;7.47;49.50;98391.19;5059551;28;20516;-71
2022/01/30 19:15:33;;;;;;;38.37;18.67;;;;;;;7.44;50.00;98384.38;5061073;28;20517;-72
2022/01/30 19:18:17;;;;;;;35.63;18.10;;;;;;;7.39;49.90;98381.28;5064899;28;20465;-72
2022/01/30 19:21:01;;;;;;;43.23;18.73;;;;;;;7.42;50.13;98372.41;5064505;28;20470;-72
2022/01/30 19:23:45;;;;;;;35.70;21.33;;;;;;;7.34;49.59;98368.53;5070215;28;20477;-72
2022/01/30 19:26:29;;;;;;;33.40;20.43;;;;;;;7.29;50.26;98365.41;5055103;28;20431;-72
2022/01/30 19:29:13;;;;;;;30.93;18.47;;;;;;;7.29;50.05;98352.34;5053981;28;20934;-72
2022/01/30 19:31:57;;;;;;;32.97;18.07;;;;;;;7.26;50.03;98349.13;5063296;28;20444;-71
2022/01/30 19:34:41;;;;;;;108.73;47.60;;;;;;;7.21;50.10;98341.63;5070125;28;20434;-72
2022/01/30 19:37:25;;;;;;;56.07;29.33;;;;;;;7.09;49.78;98345.88;5052968;28;20534;-71
2022/01/30 19:40:09;;;;;;;50.73;25.57;;;;;;;6.95;50.55;98344.19;5059737;28;20470;-72
2022/01/30 19:42:55;;;;;;;52.33;25.50;;;;;;;6.96;50.95;98348.47;5057398;28;20468;-73
2022/01/30 19:45:40;;;;;;;55.33;24.20;;;;;;;6.96;51.18;98329.38;5062266;28;20523;-72
2022/01/30 19:48:24;;;;;;;47.67;24.93;;;;;;;6.89;50.90;98316.75;5069119;28;20779;-72
2022/01/30 19:51:08;;;;;;;35.50;18.30;;;;;;;6.89;51.26;98321.97;5066635;28;20556;-73
2022/01/30 19:53:55;;;;;;;32.50;16.80;;;;;;;6.89;51.15;98328.94;5071676;28;20522;-72
2022/01/30 19:56:39;;;;;;;39.70;16.80;;;;;;;6.83;50.42;98319.75;5067819;28;20433;-73
2022/01/30 19:59:22;;;;;;;31.70;17.63;;;;;;;6.71;51.18;98308.38;5065441;28;20452;-72
2022/01/30 20:02:07;;;;;;;29.53;14.70;;;;;;;6.54;51.71;98298.22;5064763;28;20534;-72
2022/01/30 20:04:51;;;;;;;30.20;14.40;;;;;;;6.53;52.31;98293.94;5058929;28;20463;-73
2022/01/30 20:07:36;;;;;;;39.83;20.53;;;;;;;6.52;52.24;98300.94;5065959;28;20495;-71
2022/01/30 20:10:19;;;;;;;74.73;35.37;;;;;;;6.50;51.94;98294.16;5068308;28;20494;-72
2022/01/30 20:13:03;;;;;;;80.40;37.80;;;;;;;6.43;52.14;98280.69;5060167;28;20446;-71
2022/01/30 20:15:49;;;;;;;114.20;48.77;;;;;;;6.47;52.27;98274.34;5062762;28;20781;-71
2022/01/30 20:18:36;;;;;;;58.03;25.97;;;;;;;6.46;52.74;98275.28;5068574;28;20438;-73
2022/01/30 20:21:20;;;;;;;48.93;23.03;;;;;;;6.42;52.58;98284.25;5055736;28;20991;-71
2022/01/30 20:24:04;;;;;;;47.10;23.43;;;;;;;6.47;52.24;98287.38;5072257;28;20479;-73
2022/01/30 20:26:48;;;;;;;45.53;21.98;;;;;;;6.49;52.32;98288.13;5071670;28;20827;-73
2022/01/30 20:29:32;;;;;;;44.00;21.77;;;;;;;6.52;52.11;98284.47;5063110;28;20712;-72
2022/01/30 20:32:17;;;;;;;61.63;27.60;;;;;;;6.43;51.80;98278.06;5064963;28;20467;-72
2022/01/30 20:35:01;;;;;;;51.70;24.73;;;;;;;6.32;52.00;98273.59;5045392;28;20488;-72
2022/01/30 20:37:45;;;;;;;44.03;25.20;;;;;;;6.25;52.42;98273.16;5070954;28;20502;-71
2022/01/30 20:40:31;;;;;;;39.40;20.63;;;;;;;6.34;52.66;98276.94;5071540;28;20992;-72
2022/01/30 20:43:16;;;;;;;35.17;17.50;;;;;;;6.34;52.01;98258.72;5064573;28;20479;-73
2022/01/30 20:45:59;;;;;;;29.27;14.40;;;;;;;6.38;55.03;98257.56;5061128;28;20429;-72
2022/01/30 20:48:44;;;;;;;31.37;14.97;;;;;;;6.42;52.56;98259.03;5071645;28;20430;-71
2022/01/30 20:51:28;;;;;;;32.13;14.17;;;;;;;6.34;52.04;98258.72;5063596;28;20419;-71
2022/01/30 20:54:11;;;;;;;24.63;13.70;;;;;;;6.29;52.21;98248.59;5060788;28;20442;-70
2022/01/30 20:56:55;;;;;;;39.00;15.90;;;;;;;6.25;52.01;98243.66;5060788;28;20469;-72
2022/01/30 20:59:39;;;;;;;25.60;14.23;;;;;;;6.20;52.38;98246.56;5062631;28;20449;-71
2022/01/30 21:02:24;;;;;;;24.87;11.40;;;;;;;6.10;52.31;98248.09;5063006;28;20434;-72
2022/01/30 21:05:08;;;;;;;18.80;11.10;;;;;;;6.10;52.49;98243.75;5066750;28;20990;-72
2022/01/30 21:07:54;;;;;;;28.00;11.00;;;;;;;6.04;52.18;98238.09;5064315;28;20427;-72
2022/01/30 21:10:38;;;;;;;21.53;11.27;;;;;;;6.01;52.18;98227.88;5060881;28;20474;-72
2022/01/30 21:13:25;;;;;;;26.27;12.40;;;;;;;5.99;52.41;98228.81;5060419;28;20471;-72
2022/01/30 21:16:08;;;;;;;22.37;10.83;;;;;;;5.94;52.67;98230.81;5066992;28;20440;-72
2022/01/30 21:18:52;;;;;;;28.57;13.70;;;;;;;5.82;53.41;98213.38;5069258;28;20437;-71
2022/01/30 21:21:36;;;;;;;29.57;13.77;;;;;;;5.79;53.36;98204.00;5072045;28;20440;-73
2022/01/30 21:24:20;;;;;;;29.50;13.10;;;;;;;5.74;53.27;98200.03;5063607;28;20518;-72
2022/01/30 21:27:04;;;;;;;24.77;12.40;;;;;;;5.67;53.57;98190.00;5052112;28;20918;-72
2022/01/30 21:29:48;;;;;;;18.33;10.67;;;;;;;5.63;53.64;98196.34;5043281;28;20470;-73
2022/01/30 21:32:32;;;;;;;21.87;10.13;;;;;;;5.62;53.97;98192.09;5053273;28;20473;-72
2022/01/30 21:35:16;;;;;;;35.73;17.17;;;;;;;5.69;53.81;98182.94;5076750;28;20881;-72
2022/01/30 21:38:00;;;;;;;31.00;16.80;;;;;;;5.76;53.60;98187.78;5053375;28;20441;-72
2022/01/30 21:40:44;;;;;;;24.97;11.20;;;;;;;5.76;53.84;98185.16;5059339;28;20444;-72
2022/01/30 21:43:28;;;;;;;21.57;10.57;;;;;;;5.77;54.08;98174.66;5055296;28;20925;-72
2022/01/30 21:46:13;;;;;;;31.90;16.47;;;;;;;5.77;53.32;98169.44;5051510;28;20437;-73
2022/01/30 21:48:57;;;;;;;32.77;17.00;;;;;;;5.82;54.04;98174.34;5059292;28;21005;-72
2022/01/30 21:51:40;;;;;;;28.87;15.47;;;;;;;5.79;53.67;98166.78;5052744;28;20860;-72
2022/01/30 21:54:24;;;;;;;27.80;15.70;;;;;;;5.90;53.77;98153.91;5049988;28;20933;-72
2022/01/30 21:57:08;;;;;;;27.00;12.90;;;;;;;5.97;53.55;98149.94;5055719;28;20920;-72
2022/01/30 21:59:52;;;;;;;23.90;12.23;;;;;;;5.96;53.30;98145.69;5050720;28;20997;-72
2022/01/30 22:02:36;;;;;;;22.80;11.10;;;;;;;5.94;53.46;98151.94;5053031;28;20934;-72
2022/01/30 22:05:20;;;;;;;27.47;10.73;;;;;;;5.97;53.68;98146.53;5049037;28;20975;-72
2022/01/30 22:08:04;;;;;;;20.00;10.30;;;;;;;5.97;53.27;98139.53;5054324;28;20458;-72
2022/01/30 22:10:47;;;;;;;21.13;9.93;;;;;;;5.94;53.63;98128.50;5062375;28;20470;-71
2022/01/30 22:13:38;;;;;;;22.63;10.10;;;;;;;5.89;53.46;98131.41;5061658;28;20475;-71
2022/01/30 22:16:22;;;;;;;23.77;10.90;;;;;;;5.89;53.27;98122.75;5044290;28;20501;-74
2022/01/30 22:19:06;;;;;;;18.93;10.43;;;;;;;5.76;53.25;98114.94;5053643;28;20448;-69
2022/01/30 22:21:50;;;;;;;20.40;10.17;;;;;;;5.72;53.80;98108.25;5049979;28;20432;-70
2022/01/30 22:24:33;;;;;;;20.43;10.00;;;;;;;5.73;53.88;98091.72;5049960;28;20950;-70
2022/01/30 22:27:19;;;;;;;22.87;10.60;;;;;;;5.74;54.41;98081.19;5074322;28;20456;-70
2022/01/30 22:30:15;;;;;;;17.53;10.30;;;;;;;5.79;54.33;98084.34;5043858;28;21024;-70
2022/01/30 22:33:00;;;;;;;21.93;10.57;;;;;;;5.89;53.51;98068.97;5060602;28;20438;-70
2022/01/30 22:35:44;;;;;;;23.90;10.40;;;;;;;5.84;53.36;98065.81;5066557;28;20435;-70
2022/01/30 22:38:28;;;;;;;30.90;12.10;;;;;;;5.77;53.59;98059.38;5065754;28;20433;-70
2022/01/30 22:41:11;;;;;;;19.53;11.10;;;;;;;5.79;53.55;98047.09;5047902;28;20501;-70
2022/01/30 22:43:55;;;;;;;27.23;11.10;;;;;;;5.78;53.87;98035.03;5063250;28;20471;-71
2022/01/30 22:46:39;;;;;;;18.80;10.37;;;;;;;5.73;53.91;98031.88;5065159;28;20442;-70
2022/01/30 22:49:23;;;;;;;21.00;9.90;;;;;;;5.67;53.63;98036.53;5065821;28;20468;-72
2022/01/30 22:52:07;;;;;;;21.53;9.07;;;;;;;5.72;53.77;98035.41;5048196;28;20469;-71
2022/01/30 22:54:51;;;;;;;19.40;9.07;;;;;;;5.67;53.66;98023.53;5066973;28;20475;-71
2022/01/30 22:57:35;;;;;;;22.90;6.37;;;;;;;5.60;54.08;98011.06;5074450;28;20846;-71
2022/01/30 23:00:27;;;;;;;11.50;5.27;;;;;;;5.63;54.51;97996.09;5066092;28;20534;-71
2022/01/30 23:03:11;;;;;;;20.97;6.03;;;;;;;5.72;54.58;97984.25;5071471;28;20446;-71
2022/01/30 23:05:55;;;;;;;14.77;5.00;;;;;;;5.76;54.61;97970.06;5066153;28;20516;-71
2022/01/30 23:08:39;;;;;;;11.57;5.27;;;;;;;5.78;54.37;97956.97;5064109;28;20474;-72
2022/01/30 23:11:23;;;;;;;14.40;4.77;;;;;;;5.73;54.64;97951.25;5064720;28;20435;-71
2022/01/30 23:14:07;;;;;;;11.13;4.63;;;;;;;5.76;54.22;97940.63;5068499;28;20429;-71
2022/01/30 23:16:50;;;;;;;12.50;5.50;;;;;;;5.69;54.46;97933.22;5054588;28;20501;-71
2022/01/30 23:19:34;;;;;;;11.20;4.87;;;;;;;5.79;54.97;97930.03;5063628;28;20484;-71
2022/01/30 23:22:20;;;;;;;17.60;5.30;;;;;;;5.64;55.23;97924.06;5065946;28;20500;-71
2022/01/30 23:25:06;;;;;;;10.20;5.17;;;;;;;5.64;55.22;97901.53;5056387;28;20437;-71
2022/01/30 23:27:52;;;;;;;16.57;4.90;;;;;;;5.59;55.23;97889.78;5065934;28;20451;-71
2022/01/30 23:30:36;;;;;;;10.70;5.10;;;;;;;5.53;55.71;97880.63;5063253;28;20470;-71
2022/01/30 23:33:21;;;;;;;13.10;5.10;;;;;;;5.66;55.58;97876.25;5070198;28;20448;-70
2022/01/30 23:36:05;;;;;;;8.37;4.20;;;;;;;5.60;55.71;97881.84;5054121;28;20934;-71
2022/01/30 23:38:49;;;;;;;10.00;4.33;;;;;;;5.73;55.08;97875.81;5056428;28;20417;-71
2022/01/30 23:41:36;;;;;;;18.93;5.60;;;;;;;5.74;55.14;97875.69;5063697;28;20430;-71
2022/01/30 23:44:23;;;;;;;13.57;5.00;;;;;;;5.79;55.34;97891.00;5073779;28;20426;-71
2022/01/30 23:47:10;;;;;;;18.30;6.30;;;;;;;5.82;55.42;97895.97;5055535;28;20498;-71
2022/01/30 23:49:53;;;;;;;19.57;10.23;;;;;;;5.84;55.09;97901.91;5061518;28;20569;-71
2022/01/30 23:52:37;;;;;;;20.07;8.80;;;;;;;5.83;54.18;97902.84;5069934;28;20447;-71
2022/01/30 23:55:21;;;;;;;24.20;8.30;;;;;;;5.78;54.17;97891.94;5061999;28;20523;-71
2022/01/30 23:58:05;;;;;;;21.40;7.10;;;;;;;5.69;54.32;97878.63;5047503;28;20419;-71
